Time;durP1;ratioP1;P1;durP2;ratioP2;P2;SDS_P1;SDS_P2;PMS_P1;PMS_P2;Temp;Humidity;BMP_temperature;BMP_pressure;BME280_temperature;BME280_humidity;BME280_pressure;Samples;Min_cycle;Max_cycle;Signal;HPM_P1;HPM_P2
2022/09/30 00:00:01;;;;;;;51.88;22.73;;;;;;;6.34;100.00;94916.63;1035138;28;20044;-70
2022/09/30 00:00:32;;;;;;;40.17;20.25;;;;;;;6.50;100.00;94940.91;1038932;28;20033;-70
2022/09/30 00:01:02;;;;;;;43.28;22.40;;;;;;;6.49;100.00;94943.78;1030953;28;20053;-71
2022/09/30 00:01:33;;;;;;;42.53;20.73;;;;;;;6.47;100.00;94938.03;1039164;28;20470;-69
2022/09/30 00:02:04;;;;;;;45.80;21.30;;;;;;;6.31;100.00;94919.75;1043127;28;20029;-70
2022/09/30 00:02:34;;;;;;;49.38;22.08;;;;;;;6.40;100.00;94934.88;1039330;28;20164;-70
2022/09/30 00:03:04;;;;;;;44.70;22.30;;;;;;;6.45;100.00;94938.28;1035316;28;20038;-69
2022/09/30 00:03:35;;;;;;;49.70;23.08;;;;;;;6.47;100.00;94945.84;1039087;28;20525;-70
2022/09/30 00:04:08;;;;;;;52.75;24.33;;;;;;;6.43;100.00;94944.78;1028902;28;20390;-70
2022/09/30 00:04:38;;;;;;;43.70;21.50;;;;;;;6.40;100.00;94940.88;1031163;28;20018;-70
2022/09/30 00:05:09;;;;;;;44.25;22.52;;;;;;;6.41;100.00;94942.47;1034784;28;20803;-71
2022/09/30 00:05:39;;;;;;;50.88;22.58;;;;;;;6.40;100.00;94950.50;1034804;28;20030;-70
2022/09/30 00:06:10;;;;;;;55.95;23.88;;;;;;;6.33;100.00;94935.13;1034880;28;20073;-70
2022/09/30 00:06:40;;;;;;;59.30;24.10;;;;;;;6.30;100.00;94941.63;1031193;28;20018;-70
2022/09/30 00:07:11;;;;;;;46.65;22.42;;;;;;;6.35;100.00;94944.25;1033647;28;20010;-70
2022/09/30 00:07:41;;;;;;;45.00;21.13;;;;;;;6.34;100.00;94947.91;1031025;28;20025;-70
2022/09/30 00:08:12;;;;;;;47.35;22.23;;;;;;;6.34;100.00;94952.34;1031458;28;20050;-70
2022/09/30 00:08:42;;;;;;;53.88;22.63;;;;;;;6.29;100.00;94950.47;1031151;28;20026;-70
2022/09/30 00:09:13;;;;;;;41.47;21.30;;;;;;;6.30;100.00;94946.81;1032885;28;20018;-68
2022/09/30 00:09:43;;;;;;;47.08;23.25;;;;;;;6.31;100.00;94948.41;1031270;28;20022;-70
2022/09/30 00:10:16;;;;;;;53.85;24.08;;;;;;;6.29;100.00;94945.25;1031160;28;20018;-71
2022/09/30 00:10:46;;;;;;;52.55;23.95;;;;;;;6.27;100.00;94957.78;1039851;28;20443;-71
2022/09/30 00:11:24;;;;;;;48.30;22.30;;;;;;;6.25;100.00;94943.44;1039104;28;20264;-69
2022/09/30 00:11:54;;;;;;;51.25;21.27;;;;;;;6.25;100.00;94957.25;1035168;28;20022;-70
2022/09/30 00:12:26;;;;;;;43.70;21.35;;;;;;;6.25;100.00;94952.03;1042837;28;20263;-69
2022/09/30 00:12:57;;;;;;;41.28;21.30;;;;;;;6.24;100.00;94953.06;1036269;28;20022;-71
2022/09/30 00:13:27;;;;;;;44.50;21.55;;;;;;;6.25;100.00;94954.63;1035467;28;20260;-70
2022/09/30 00:13:58;;;;;;;47.53;21.67;;;;;;;6.20;100.00;94953.81;1041825;28;20263;-71
2022/09/30 00:14:29;;;;;;;46.13;22.65;;;;;;;6.24;100.00;94958.28;1039629;28;20439;-70
2022/09/30 00:14:59;;;;;;;41.17;22.20;;;;;;;6.24;100.00;94955.69;1043423;28;20539;-70
2022/09/30 00:15:30;;;;;;;46.20;22.60;;;;;;;6.23;100.00;94956.69;1038183;28;20385;-70
2022/09/30 00:16:00;;;;;;;53.30;23.05;;;;;;;6.23;100.00;94955.91;1034760;28;20073;-70
2022/09/30 00:16:33;;;;;;;47.63;23.60;;;;;;;6.17;100.00;94949.91;1031331;28;20412;-70
2022/09/30 00:17:03;;;;;;;44.60;22.40;;;;;;;6.20;100.00;94959.81;1035116;28;20025;-71
2022/09/30 00:17:33;;;;;;;51.15;23.95;;;;;;;6.12;100.00;94944.69;1042607;28;20693;-70
2022/09/30 00:18:04;;;;;;;52.83;23.98;;;;;;;6.19;100.00;94949.66;1039270;28;20041;-70
2022/09/30 00:18:35;;;;;;;49.92;24.70;;;;;;;6.06;100.00;94941.25;1039092;28;20021;-70
2022/09/30 00:19:06;;;;;;;50.63;25.13;;;;;;;6.18;100.00;94959.28;1039433;28;20392;-69
2022/09/30 00:19:36;;;;;;;49.58;24.92;;;;;;;6.15;100.00;94954.59;1038994;28;20268;-71
2022/09/30 00:20:07;;;;;;;50.90;25.95;;;;;;;6.17;100.00;94962.94;1035049;28;20014;-71
2022/09/30 00:20:37;;;;;;;49.63;25.40;;;;;;;6.20;100.00;94962.41;1039123;28;20444;-69
2022/09/30 00:21:08;;;;;;;62.22;28.10;;;;;;;6.13;100.00;94951.44;1036744;28;20026;-68
2022/09/30 00:21:39;;;;;;;53.38;25.58;;;;;;;6.21;100.00;94961.41;1034957;28;20032;-71
2022/09/30 00:22:09;;;;;;;58.60;28.17;;;;;;;6.23;100.00;94966.34;1031232;28;20092;-70
2022/09/30 00:22:40;;;;;;;57.75;28.08;;;;;;;6.20;100.00;94959.81;1038698;28;20017;-70
2022/09/30 00:23:10;;;;;;;55.45;26.83;;;;;;;6.19;100.00;94955.66;1035212;28;20509;-70
2022/09/30 00:23:41;;;;;;;57.58;28.45;;;;;;;6.19;100.00;94957.47;1034696;28;20034;-70
2022/09/30 00:24:11;;;;;;;54.47;25.92;;;;;;;6.22;100.00;94962.94;1031224;28;20015;-70
2022/09/30 00:24:42;;;;;;;53.83;25.77;;;;;;;6.16;100.00;94961.34;1039097;28;20024;-69
2022/09/30 00:25:12;;;;;;;63.75;27.58;;;;;;;6.18;100.00;94967.09;1034986;28;20014;-70
2022/09/30 00:25:43;;;;;;;53.92;26.20;;;;;;;6.17;100.00;94965.56;1030031;28;20030;-70
2022/09/30 00:26:15;;;;;;;53.75;25.60;;;;;;;6.09;100.00;94951.16;1030465;28;20022;-69
2022/09/30 00:26:45;;;;;;;58.72;27.20;;;;;;;6.16;100.00;94966.56;1030802;28;20389;-69
2022/09/30 00:27:17;;;;;;;55.50;25.15;;;;;;;6.14;100.00;94963.44;1030967;28;20277;-70
2022/09/30 00:27:47;;;;;;;55.08;25.85;;;;;;;6.12;100.00;94965.50;1031110;28;20049;-70
2022/09/30 00:28:18;;;;;;;49.88;24.38;;;;;;;6.11;100.00;94969.16;1035323;28;20276;-70
2022/09/30 00:28:52;;;;;;;47.72;24.42;;;;;;;6.07;100.00;94962.88;1035010;28;20022;-71
2022/09/30 00:29:23;;;;;;;46.97;24.27;;;;;;;6.08;100.00;94965.22;1035044;28;20066;-70
2022/09/30 00:29:53;;;;;;;53.42;24.65;;;;;;;6.01;100.00;94958.69;1038721;28;20260;-70
2022/09/30 00:30:24;;;;;;;58.17;28.10;;;;;;;6.07;100.00;94968.06;1043276;28;20434;-70
2022/09/30 00:30:59;;;;;;;57.95;27.35;;;;;;;6.06;100.00;94969.13;1043101;28;20013;-69
2022/09/30 00:31:30;;;;;;;56.15;28.23;;;;;;;6.02;100.00;94957.66;1036949;28;20097;-70
2022/09/30 00:32:01;;;;;;;64.07;29.58;;;;;;;6.03;100.00;94967.03;1030778;28;20317;-70
2022/09/30 00:32:31;;;;;;;65.65;27.55;;;;;;;6.02;100.00;94968.06;1031956;28;20328;-69
2022/09/30 00:33:02;;;;;;;74.68;30.13;;;;;;;5.99;100.00;94961.53;1033010;28;20261;-69
2022/09/30 00:33:33;;;;;;;62.05;28.25;;;;;;;5.99;100.00;94971.94;1035035;28;20021;-68
2022/09/30 00:34:07;;;;;;;58.10;28.20;;;;;;;5.99;100.00;94973.78;1039382;28;20033;-70
2022/09/30 00:34:37;;;;;;;62.30;27.15;;;;;;;5.98;100.00;94956.59;1046842;28;20611;-69
2022/09/30 00:35:08;;;;;;;71.13;30.70;;;;;;;5.95;100.00;94962.31;1043769;28;20274;-69
2022/09/30 00:35:38;;;;;;;63.58;30.45;;;;;;;6.02;100.00;94968.06;1034361;28;20041;-70
2022/09/30 00:36:09;;;;;;;63.17;29.70;;;;;;;6.05;100.00;94970.16;1035027;28;20342;-70
2022/09/30 00:36:44;;;;;;;68.25;29.55;;;;;;;6.02;100.00;94968.06;1035199;28;20114;-70
2022/09/30 00:37:15;;;;;;;72.18;30.17;;;;;;;6.06;100.00;94969.91;1039624;28;20575;-70
2022/09/30 00:37:46;;;;;;;71.90;30.48;;;;;;;6.06;100.00;94974.34;1038992;28;20347;-70
2022/09/30 00:38:16;;;;;;;68.90;30.70;;;;;;;6.07;100.00;94965.47;1035452;28;20261;-70
2022/09/30 00:38:47;;;;;;;77.88;31.17;;;;;;;6.09;100.00;94968.63;1039416;28;20037;-70
2022/09/30 00:39:24;;;;;;;71.63;29.63;;;;;;;6.07;100.00;94973.28;1043297;28;20026;-71
2022/09/30 00:39:55;;;;;;;71.70;31.05;;;;;;;6.08;100.00;94969.66;1041544;28;20468;-70
2022/09/30 00:40:26;;;;;;;73.40;30.92;;;;;;;6.08;100.00;94977.47;1051406;28;20262;-71
2022/09/30 00:40:58;;;;;;;72.75;30.48;;;;;;;6.03;100.00;94967.81;1047670;28;20016;-71
2022/09/30 00:41:29;;;;;;;82.53;32.08;;;;;;;6.08;100.00;94970.44;1035216;28;20406;-70
2022/09/30 00:42:00;;;;;;;82.90;33.38;;;;;;;6.08;100.00;94967.06;1034763;28;20360;-69
2022/09/30 00:42:31;;;;;;;95.85;34.08;;;;;;;6.08;100.00;94969.66;1039079;28;20025;-70
2022/09/30 00:43:01;;;;;;;101.90;34.10;;;;;;;6.09;100.00;94972.00;1039248;28;20627;-70
2022/09/30 00:43:50;;;;;;;124.68;35.50;;;;;;;6.05;100.00;94967.56;1039593;28;20052;-70
2022/09/30 00:44:43;;;;;;;109.68;33.67;;;;;;;6.10;100.00;94973.59;1043088;28;20530;-70
2022/09/30 00:45:16;;;;;;;119.75;34.00;;;;;;;6.11;100.00;94976.97;1047318;28;20254;-70
2022/09/30 00:45:56;;;;;;;142.60;36.40;;;;;;;6.08;100.00;94975.66;1034407;28;20261;-69
2022/09/30 00:46:36;;;;;;;137.27;35.50;;;;;;;6.10;100.00;94978.00;1035294;28;20259;-70
2022/09/30 00:47:25;;;;;;;203.40;40.80;;;;;;;6.09;100.00;94976.44;1039293;28;20480;-71
2022/09/30 00:48:01;;;;;;;141.73;31.98;;;;;;;6.06;100.00;94972.50;1039423;28;20119;-71
2022/09/30 00:48:34;;;;;;;136.35;36.08;;;;;;;6.02;100.00;94955.81;1035522;28;20736;-70
2022/09/30 00:49:10;;;;;;;217.15;42.75;;;;;;;6.05;100.00;94970.16;1035134;28;20616;-69
2022/09/30 00:49:40;;;;;;;238.73;42.55;;;;;;;6.07;100.00;94975.88;1034954;28;20245;-69
2022/09/30 00:50:36;;;;;;;175.30;39.05;;;;;;;6.06;100.00;94972.50;1037584;28;20886;-69
2022/09/30 00:51:06;;;;;;;253.73;43.33;;;;;;;6.04;100.00;94977.19;1031131;28;20033;-70
2022/09/30 00:51:42;;;;;;;261.42;42.58;;;;;;;5.99;100.00;94966.75;1042646;28;20588;-70
2022/09/30 00:52:12;;;;;;;239.35;42.10;;;;;;;6.03;100.00;94974.84;1039155;28;20021;-69
2022/09/30 00:52:44;;;;;;;264.70;42.22;;;;;;;6.00;100.00;94968.34;1040715;28;20674;-70
2022/09/30 00:53:40;;;;;;;254.75;44.40;;;;;;;6.00;100.00;94970.94;1043277;28;20025;-69
2022/09/30 00:54:17;;;;;;;149.80;37.33;;;;;;;5.97;100.00;94968.84;1037747;28;20260;-69
2022/09/30 00:54:47;;;;;;;241.18;43.67;;;;;;;5.98;100.00;94969.63;1035745;28;20336;-70
2022/09/30 00:55:49;;;;;;;208.73;40.53;;;;;;;5.98;100.00;94980.03;1034806;28;20273;-72
2022/09/30 00:56:24;;;;;;;155.50;37.42;;;;;;;5.95;100.00;94967.50;1026694;28;20528;-71
2022/09/30 00:56:57;;;;;;;142.45;38.42;;;;;;;5.96;100.00;94974.28;1034612;28;20276;-70
2022/09/30 00:57:27;;;;;;;164.07;37.20;;;;;;;5.95;100.00;94970.13;1035198;28;20790;-70
2022/09/30 00:57:58;;;;;;;165.40;37.92;;;;;;;5.95;100.00;94975.31;1034743;28;20260;-70
2022/09/30 00:59:04;;;;;;;148.68;36.17;;;;;;;5.95;100.00;94965.69;1034948;28;20021;-70
2022/09/30 00:59:38;;;;;;;222.85;42.22;;;;;;;5.94;100.00;94971.16;1031062;28;20080;-70
2022/09/30 01:00:08;;;;;;;242.00;42.83;;;;;;;5.93;100.00;94977.38;1033672;28;20273;-71
2022/09/30 01:00:39;;;;;;;298.92;46.67;;;;;;;5.91;100.00;94981.00;1038402;28;20312;-70
2022/09/30 01:01:10;;;;;;;218.40;44.42;;;;;;;5.88;100.00;94975.50;1034639;28;20037;-70
2022/09/30 01:01:40;;;;;;;240.15;43.83;;;;;;;5.90;100.00;94974.22;1034622;28;20549;-70
2022/09/30 01:02:13;;;;;;;241.13;45.63;;;;;;;5.73;100.00;94951.97;1035938;28;20030;-70
2022/09/30 01:02:45;;;;;;;223.10;44.50;;;;;;;5.89;100.00;94975.25;1035217;28;20020;-71
2022/09/30 01:03:16;;;;;;;238.70;47.47;;;;;;;5.89;100.00;94980.44;1030605;28;20577;-70
2022/09/30 01:04:01;;;;;;;274.88;49.88;;;;;;;5.87;100.00;94982.53;1037512;28;20260;-69
2022/09/30 01:04:31;;;;;;;316.02;53.83;;;;;;;5.87;100.00;94985.16;1035073;28;20296;-70
2022/09/30 01:05:02;;;;;;;216.63;44.72;;;;;;;5.84;100.00;94987.47;1034856;28;20374;-70
2022/09/30 01:05:33;;;;;;;255.88;48.15;;;;;;;5.83;100.00;94978.84;1033798;28;20028;-69
2022/09/30 01:06:03;;;;;;;194.55;43.10;;;;;;;5.85;100.00;94982.00;1030893;28;20077;-71
2022/09/30 01:06:34;;;;;;;259.17;49.47;;;;;;;5.86;100.00;94986.16;1026864;28;21061;-70
2022/09/30 01:07:05;;;;;;;308.67;52.95;;;;;;;5.86;100.00;94988.75;1030734;28;20114;-70
2022/09/30 01:07:36;;;;;;;134.48;37.15;;;;;;;5.86;100.00;94988.75;1030320;28;20723;-70
2022/09/30 01:08:06;;;;;;;186.05;41.92;;;;;;;5.86;100.00;94988.75;1031237;28;20304;-71
2022/09/30 01:08:37;;;;;;;202.93;43.40;;;;;;;5.88;100.00;94983.31;1034724;28;20519;-70
2022/09/30 01:09:07;;;;;;;130.05;35.65;;;;;;;5.89;100.00;94988.25;1034882;28;20014;-69
2022/09/30 01:09:39;;;;;;;121.00;37.97;;;;;;;5.89;100.00;94993.47;1034933;28;20022;-70
2022/09/30 01:10:09;;;;;;;173.95;36.65;;;;;;;5.84;100.00;94985.66;1035118;28;20109;-70
2022/09/30 01:10:40;;;;;;;153.07;36.63;;;;;;;5.89;100.00;94993.47;1027598;28;20262;-70
2022/09/30 01:11:10;;;;;;;237.77;43.45;;;;;;;5.89;100.00;94995.28;1031870;28;20096;-71
2022/09/30 01:11:41;;;;;;;214.50;42.00;;;;;;;5.86;100.00;94993.97;1030933;28;20093;-70
2022/09/30 01:12:20;;;;;;;184.98;42.28;;;;;;;5.88;100.00;94991.91;1037151;28;20040;-70
2022/09/30 01:12:50;;;;;;;209.32;41.72;;;;;;;5.89;100.00;94998.69;1030823;28;20029;-71
2022/09/30 01:13:22;;;;;;;334.08;51.72;;;;;;;5.87;100.00;94990.34;1030934;28;20261;-70
2022/09/30 01:13:54;;;;;;;264.77;46.92;;;;;;;5.85;100.00;94987.19;1038771;28;20021;-70
2022/09/30 01:14:25;;;;;;;244.52;42.45;;;;;;;5.87;100.00;94990.34;1038854;28;20278;-70
2022/09/30 01:14:56;;;;;;;219.68;40.53;;;;;;;5.91;100.00;94996.63;1035051;28;20344;-70
2022/09/30 01:15:36;;;;;;;272.83;44.75;;;;;;;5.93;100.00;94998.22;1035366;28;20256;-71
2022/09/30 01:16:25;;;;;;;256.15;48.95;;;;;;;5.91;100.00;94996.63;1041968;28;20526;-70
2022/09/30 01:17:22;;;;;;;313.85;46.17;;;;;;;5.90;100.00;94989.84;1043132;28;20430;-70
2022/09/30 01:18:08;;;;;;;333.98;46.92;;;;;;;5.84;100.00;94983.03;1036619;28;20269;-69
2022/09/30 01:18:53;;;;;;;296.13;47.22;;;;;;;5.91;100.00;94996.63;1036234;28;20778;-70
2022/09/30 01:19:27;;;;;;;278.20;45.53;;;;;;;5.89;100.00;94990.09;1039210;28;20358;-70
2022/09/30 01:20:21;;;;;;;152.23;37.15;;;;;;;5.90;100.00;94992.47;1034495;28;20779;-69
2022/09/30 01:21:19;;;;;;;258.15;43.85;;;;;;;5.89;100.00;94988.25;1043139;28;20255;-70
2022/09/30 01:22:06;;;;;;;233.13;42.72;;;;;;;5.83;100.00;94981.44;1046023;28;20359;-70
2022/09/30 01:23:09;;;;;;;243.07;41.20;;;;;;;5.86;100.00;94987.97;1049029;28;20342;-71
2022/09/30 01:24:03;;;;;;;240.35;42.30;;;;;;;5.83;100.00;94984.06;1042764;28;20303;-69
2022/09/30 01:24:41;;;;;;;265.85;42.90;;;;;;;5.80;100.00;94987.19;1040495;28;20288;-70
2022/09/30 01:25:14;;;;;;;266.23;44.28;;;;;;;5.79;100.00;94988.19;1030569;28;20272;-70
2022/09/30 01:26:15;;;;;;;282.35;45.85;;;;;;;5.79;100.00;94985.59;1033643;28;20272;-68
2022/09/30 01:27:01;;;;;;;294.25;47.17;;;;;;;5.75;100.00;94981.94;1036231;28;20268;-70
2022/09/30 01:27:53;;;;;;;278.23;48.30;;;;;;;5.75;100.00;94981.94;1043359;28;21120;-70
2022/09/30 01:28:49;;;;;;;264.35;46.17;;;;;;;5.75;100.00;94987.13;1039633;28;20245;-70
2022/09/30 01:29:34;;;;;;;285.73;46.92;;;;;;;5.74;100.00;94980.38;1044546;28;20721;-70
2022/09/30 01:30:13;;;;;;;297.67;47.63;;;;;;;5.75;100.00;94987.13;1047568;28;20251;-71
2022/09/30 01:30:53;;;;;;;248.18;47.05;;;;;;;5.75;100.00;94983.75;1043454;28;21021;-70
2022/09/30 01:31:27;;;;;;;288.75;50.80;;;;;;;5.75;100.00;94989.75;1043277;28;20831;-70
2022/09/30 01:32:06;;;;;;;239.73;46.78;;;;;;;5.76;100.00;94993.13;1039168;28;20295;-70
2022/09/30 01:32:52;;;;;;;122.57;39.15;;;;;;;5.76;100.00;94988.69;1037418;28;20635;-70
2022/09/30 01:33:56;;;;;;;136.32;41.03;;;;;;;5.77;100.00;94987.69;1030667;28;20258;-71
2022/09/30 01:34:43;;;;;;;211.63;45.10;;;;;;;5.76;100.00;94993.13;1035615;28;20572;-70
2022/09/30 01:35:25;;;;;;;228.43;46.90;;;;;;;5.79;100.00;94992.63;1041181;28;20256;-70
2022/09/30 01:36:08;;;;;;;189.00;43.70;;;;;;;5.78;100.00;94997.06;1042713;28;20875;-70
2022/09/30 01:37:03;;;;;;;196.25;45.70;;;;;;;5.80;100.00;94997.59;1042685;28;20262;-71
2022/09/30 01:38:04;;;;;;;182.77;44.22;;;;;;;5.82;100.00;94994.72;1038803;28;20259;-70
2022/09/30 01:38:47;;;;;;;157.93;42.05;;;;;;;5.84;100.00;95001.25;1037977;28;20248;-71
2022/09/30 01:39:42;;;;;;;253.18;48.42;;;;;;;5.86;100.00;95009.59;1033914;28;20060;-70
2022/09/30 01:40:24;;;;;;;197.48;45.15;;;;;;;5.87;100.00;95007.78;1042193;28;20295;-69
2022/09/30 01:40:57;;;;;;;218.52;46.83;;;;;;;5.87;100.00;95013.00;1032931;28;20258;-70
2022/09/30 01:41:39;;;;;;;202.25;48.05;;;;;;;5.88;100.00;95006.75;1039464;28;20798;-71
2022/09/30 01:42:17;;;;;;;219.13;46.47;;;;;;;5.85;100.00;95013.25;1039296;28;20287;-70
2022/09/30 01:43:06;;;;;;;191.63;45.10;;;;;;;5.81;100.00;95001.75;1040987;28;20267;-70
2022/09/30 01:43:43;;;;;;;220.38;46.58;;;;;;;5.84;100.00;95010.91;1027225;28;20673;-70
2022/09/30 01:44:18;;;;;;;260.50;49.50;;;;;;;5.82;100.00;95008.53;1026893;28;20371;-71
2022/09/30 01:45:15;;;;;;;312.33;52.50;;;;;;;5.86;100.00;95019.22;1035294;28;20280;-70
2022/09/30 01:46:07;;;;;;;222.30;46.65;;;;;;;5.77;100.00;95000.69;1029773;28;20283;-71
2022/09/30 01:47:11;;;;;;;235.85;46.13;;;;;;;5.80;100.00;95013.22;1032030;28;21031;-70
2022/09/30 01:47:42;;;;;;;289.88;47.90;;;;;;;5.79;100.00;95008.25;1037850;28;20263;-71
2022/09/30 01:48:20;;;;;;;240.52;46.78;;;;;;;5.75;100.00;95000.16;1034267;28;20284;-69
2022/09/30 01:49:06;;;;;;;207.05;46.25;;;;;;;5.82;100.00;95016.34;1030834;28;20252;-70
2022/09/30 01:49:59;;;;;;;233.63;47.40;;;;;;;5.60;100.00;94977.41;1033949;28;20799;-70
2022/09/30 01:50:38;;;;;;;242.77;48.97;;;;;;;5.81;100.00;95009.56;1037262;28;20249;-70
2022/09/30 01:51:12;;;;;;;170.38;43.22;;;;;;;5.82;100.00;95008.53;1034904;28;20256;-71
2022/09/30 01:52:03;;;;;;;216.20;49.63;;;;;;;5.81;100.00;95012.19;1032332;28;20266;-71
2022/09/30 01:52:43;;;;;;;223.75;46.95;;;;;;;5.78;100.00;95007.47;1034686;28;20264;-70
2022/09/30 01:53:19;;;;;;;248.98;49.58;;;;;;;5.72;100.00;95012.88;1030944;28;20280;-70
2022/09/30 01:53:59;;;;;;;225.68;48.42;;;;;;;5.76;100.00;95014.72;1034882;28;20018;-70
2022/09/30 01:54:52;;;;;;;214.63;52.45;;;;;;;5.70;100.00;95010.53;1035087;28;20878;-71
2022/09/30 01:55:32;;;;;;;216.90;51.65;;;;;;;5.78;100.00;95022.31;1033658;28;20268;-71
2022/09/30 01:56:23;;;;;;;203.02;49.78;;;;;;;5.78;100.00;95025.69;1034775;28;20753;-70
2022/09/30 01:56:57;;;;;;;185.63;52.45;;;;;;;5.79;100.00;95023.88;1030330;28;20297;-70
2022/09/30 01:57:49;;;;;;;179.55;49.85;;;;;;;5.79;100.00;95024.66;1038934;28;20286;-72
2022/09/30 01:58:25;;;;;;;162.10;46.88;;;;;;;5.79;100.00;95022.03;1040746;28;20266;-69
2022/09/30 01:58:59;;;;;;;145.77;45.47;;;;;;;5.80;100.00;95018.44;1043031;28;20259;-70
2022/09/30 01:59:40;;;;;;;163.77;48.70;;;;;;;5.81;100.00;95021.81;1030675;28;20308;-69
2022/09/30 02:00:10;;;;;;;150.77;46.25;;;;;;;5.77;100.00;95018.91;1033693;28;20280;-70
2022/09/30 02:00:42;;;;;;;149.48;44.92;;;;;;;5.84;100.00;95023.91;1030671;28;20815;-70
2022/09/30 02:01:23;;;;;;;157.63;46.95;;;;;;;5.86;100.00;95024.44;1042994;28;20023;-70
2022/09/30 02:01:58;;;;;;;172.85;46.72;;;;;;;5.80;100.00;95015.00;1029386;28;20863;-69
2022/09/30 02:02:30;;;;;;;171.48;47.30;;;;;;;5.86;100.00;95024.44;1026962;28;20614;-70
2022/09/30 02:03:09;;;;;;;151.40;46.28;;;;;;;5.87;100.00;95026.03;1035115;28;20268;-69
2022/09/30 02:03:48;;;;;;;187.80;49.88;;;;;;;5.86;100.00;95019.22;1032547;28;20344;-70
2022/09/30 02:04:29;;;;;;;166.38;48.35;;;;;;;5.82;100.00;95021.53;1039062;28;20279;-71
2022/09/30 02:05:05;;;;;;;202.20;50.63;;;;;;;5.85;100.00;95023.66;1034823;28;20744;-70
2022/09/30 02:05:44;;;;;;;193.32;47.70;;;;;;;5.85;100.00;95028.84;1029494;28;20269;-71
2022/09/30 02:06:19;;;;;;;158.02;45.22;;;;;;;5.80;100.00;95020.22;1028356;28;20254;-70
2022/09/30 02:06:52;;;;;;;230.93;50.03;;;;;;;5.83;100.00;95025.72;1031115;28;20287;-70
2022/09/30 02:07:27;;;;;;;175.75;47.47;;;;;;;5.83;100.00;95024.94;1038851;28;21127;-70
2022/09/30 02:07:59;;;;;;;190.23;47.08;;;;;;;5.80;100.00;95020.22;1034653;28;20303;-70
2022/09/30 02:08:38;;;;;;;184.23;46.20;;;;;;;5.67;100.00;95001.41;1038984;28;20260;-70
2022/09/30 02:09:13;;;;;;;205.05;48.28;;;;;;;5.79;100.00;95019.44;1026781;28;20261;-70
2022/09/30 02:09:48;;;;;;;185.02;43.80;;;;;;;5.77;100.00;95018.09;1030976;28;20261;-70
2022/09/30 02:10:19;;;;;;;198.82;47.72;;;;;;;5.76;100.00;95014.72;1039287;28;20271;-70
2022/09/30 02:11:22;;;;;;;156.95;43.40;;;;;;;5.82;100.00;95024.16;1038810;28;20264;-69
2022/09/30 02:11:55;;;;;;;179.60;45.60;;;;;;;5.77;100.00;95024.13;1023993;28;20263;-68
2022/09/30 02:12:26;;;;;;;247.45;50.05;;;;;;;5.76;100.00;95021.75;1031493;28;20265;-70
2022/09/30 02:13:03;;;;;;;214.52;49.03;;;;;;;5.77;100.00;95021.53;1034723;28;20260;-69
2022/09/30 02:13:49;;;;;;;176.02;45.78;;;;;;;5.76;100.00;95027.75;1034671;28;20321;-70
2022/09/30 02:14:31;;;;;;;194.88;46.97;;;;;;;5.70;100.00;95015.75;1038992;28;20323;-70
2022/09/30 02:15:09;;;;;;;177.90;45.67;;;;;;;5.74;100.00;95022.03;1038886;28;20276;-70
2022/09/30 02:15:43;;;;;;;228.07;48.53;;;;;;;5.75;100.00;95025.41;1037841;28;20256;-70
2022/09/30 02:16:16;;;;;;;169.55;44.58;;;;;;;5.71;100.00;95022.50;1034373;28;20257;-70
2022/09/30 02:17:01;;;;;;;218.60;48.70;;;;;;;5.71;100.00;95021.72;1030893;28;20257;-70
2022/09/30 02:17:57;;;;;;;191.85;46.17;;;;;;;5.72;100.00;95028.50;1038870;28;20259;-70
2022/09/30 02:18:35;;;;;;;170.55;44.53;;;;;;;5.72;100.00;95029.28;1034881;28;20248;-71
2022/09/30 02:19:17;;;;;;;211.27;47.33;;;;;;;5.62;100.00;95013.59;1037046;28;20774;-71
2022/09/30 02:20:12;;;;;;;145.35;40.50;;;;;;;5.71;100.00;95032.16;1043249;28;20588;-70
2022/09/30 02:20:42;;;;;;;188.30;44.28;;;;;;;5.70;100.00;95031.38;1047064;28;20259;-70
2022/09/30 02:21:16;;;;;;;236.68;48.03;;;;;;;5.68;100.00;95028.22;1038779;28;20244;-70
2022/09/30 02:21:55;;;;;;;250.10;48.78;;;;;;;5.67;100.00;95027.44;1034716;28;20392;-70
2022/09/30 02:22:31;;;;;;;196.40;44.65;;;;;;;5.59;100.00;95020.06;1030814;28;20827;-71
2022/09/30 02:23:16;;;;;;;151.43;42.88;;;;;;;5.65;100.00;95026.09;1030377;28;20799;-69
2022/09/30 02:23:48;;;;;;;346.35;54.13;;;;;;;5.67;100.00;95034.47;1026781;28;20262;-70
2022/09/30 02:24:20;;;;;;;254.68;49.58;;;;;;;5.65;100.00;95028.72;1030809;28;20348;-69
2022/09/30 02:24:53;;;;;;;226.93;47.42;;;;;;;5.66;100.00;95027.66;1034906;28;20792;-70
2022/09/30 02:25:28;;;;;;;266.85;50.30;;;;;;;5.61;100.00;95025.81;1034034;28;20372;-71
2022/09/30 02:26:05;;;;;;;282.13;54.78;;;;;;;5.62;100.00;95024.00;1030624;28;20265;-71
2022/09/30 02:26:37;;;;;;;292.85;54.95;;;;;;;5.61;100.00;95025.03;1034569;28;20754;-70
2022/09/30 02:27:10;;;;;;;183.32;45.72;;;;;;;5.66;100.00;95031.06;1034637;28;20319;-70
2022/09/30 02:27:44;;;;;;;156.93;44.95;;;;;;;5.64;100.00;95027.16;1035014;28;20257;-71
2022/09/30 02:28:20;;;;;;;150.45;41.70;;;;;;;5.62;100.00;95024.78;1030676;28;20256;-70
2022/09/30 02:28:53;;;;;;;317.23;55.25;;;;;;;5.65;100.00;95039.13;1026937;28;20266;-70
2022/09/30 02:29:27;;;;;;;261.92;48.95;;;;;;;5.65;100.00;95036.53;1030702;28;20266;-71
2022/09/30 02:29:58;;;;;;;270.83;47.88;;;;;;;5.63;100.00;95034.19;1031050;28;20257;-71
2022/09/30 02:30:28;;;;;;;123.07;40.05;;;;;;;5.66;100.00;95032.88;1030560;28;20274;-70
2022/09/30 02:30:59;;;;;;;153.52;40.88;;;;;;;5.66;100.00;95032.88;1030464;28;20293;-69
2022/09/30 02:31:31;;;;;;;141.95;40.20;;;;;;;5.66;100.00;95035.47;1033663;28;20069;-70
2022/09/30 02:32:12;;;;;;;143.77;41.53;;;;;;;5.70;100.00;95036.56;1034905;28;20631;-70
2022/09/30 02:33:02;;;;;;;165.80;43.10;;;;;;;5.71;100.00;95038.13;1034896;28;20810;-69
2022/09/30 02:33:36;;;;;;;140.73;37.97;;;;;;;5.74;100.00;95039.47;1031282;28;20041;-69
2022/09/30 02:34:13;;;;;;;143.68;38.70;;;;;;;5.76;100.00;95032.16;1031339;28;20544;-70
2022/09/30 02:34:46;;;;;;;194.45;42.40;;;;;;;5.72;100.00;95031.88;1035140;28;20264;-70
2022/09/30 02:35:22;;;;;;;155.88;40.08;;;;;;;5.77;100.00;95034.53;1038899;28;20781;-70
2022/09/30 02:35:56;;;;;;;180.98;41.78;;;;;;;5.76;100.00;95034.78;1028870;28;20273;-70
2022/09/30 02:36:32;;;;;;;128.80;37.45;;;;;;;5.77;100.00;95034.53;1039214;28;20272;-70
2022/09/30 02:37:32;;;;;;;106.20;36.38;;;;;;;5.77;100.00;95028.53;1043535;28;20793;-70
2022/09/30 02:38:09;;;;;;;133.73;39.22;;;;;;;5.81;100.00;95035.59;1043240;28;20289;-70
2022/09/30 02:38:41;;;;;;;98.93;34.03;;;;;;;5.81;100.00;95033.00;1038938;28;20363;-71
2022/09/30 02:39:35;;;;;;;137.63;41.50;;;;;;;5.83;100.00;95033.50;1030929;28;20559;-71
2022/09/30 02:40:15;;;;;;;85.28;33.60;;;;;;;5.84;100.00;95023.91;1034301;28;20279;-69
2022/09/30 02:40:48;;;;;;;106.32;39.13;;;;;;;5.88;100.00;95033.56;1035534;28;20269;-70
2022/09/30 02:41:22;;;;;;;83.75;33.20;;;;;;;5.91;100.00;95030.47;1031062;28;20474;-70
2022/09/30 02:41:57;;;;;;;93.43;36.35;;;;;;;5.94;100.00;95033.66;1030852;28;20272;-69
2022/09/30 02:42:28;;;;;;;99.43;36.17;;;;;;;5.89;100.00;95026.53;1035417;28;20269;-70
2022/09/30 02:42:58;;;;;;;96.13;37.08;;;;;;;5.88;100.00;95022.38;1031061;28;20261;-70
2022/09/30 02:43:29;;;;;;;112.97;40.35;;;;;;;6.00;100.00;95035.22;1030795;28;20018;-70
2022/09/30 02:43:59;;;;;;;120.30;40.05;;;;;;;5.99;100.00;95024.03;1031528;28;20046;-71
2022/09/30 02:44:30;;;;;;;103.93;37.70;;;;;;;6.04;100.00;95025.91;1031443;28;20014;-71
2022/09/30 02:45:07;;;;;;;101.00;38.80;;;;;;;5.99;100.00;95025.84;1031222;28;20025;-70
2022/09/30 02:45:50;;;;;;;92.15;36.13;;;;;;;6.02;100.00;95033.16;1030262;28;20648;-70
2022/09/30 02:46:33;;;;;;;79.72;34.30;;;;;;;5.91;100.00;95007.03;1031304;28;20857;-70
2022/09/30 02:47:22;;;;;;;94.68;36.42;;;;;;;6.09;100.00;95034.50;1043517;28;20267;-71